sensor_id;sensor_type;location;lat;lon;timestamp;P1;durP1;ratioP1;P2;durP2;ratioP2
21771;SDS011;11047;47.904;8.110;2024-03-07T00:00:42;4.07;;;3.08;;
21771;SDS011;11047;47.904;8.110;2024-03-07T00:03:09;6.07;;;4.20;;
21771;SDS011;11047;47.904;8.110;2024-03-07T00:05:36;4.28;;;3.42;;
21771;SDS011;11047;47.904;8.110;2024-03-07T00:08:06;4.75;;;3.95;;
21771;SDS011;11047;47.904;8.110;2024-03-07T00:10:33;4.30;;;3.38;;
21771;SDS011;11047;47.904;8.110;2024-03-07T00:13:01;5.30;;;4.05;;
21771;SDS011;11047;47.904;8.110;2024-03-07T00:15:28;4.72;;;3.80;;
21771;SDS011;11047;47.904;8.110;2024-03-07T00:17:55;4.43;;;3.35;;
21771;SDS011;11047;47.904;8.110;2024-03-07T00:20:22;3.90;;;3.33;;
21771;SDS011;11047;47.904;8.110;2024-03-07T00:22:49;4.13;;;3.47;;
21771;SDS011;11047;47.904;8.110;2024-03-07T00:25:17;4.78;;;3.60;;
21771;SDS011;11047;47.904;8.110;2024-03-07T00:27:47;4.28;;;3.33;;
21771;SDS011;11047;47.904;8.110;2024-03-07T00:30:14;4.68;;;3.60;;
21771;SDS011;11047;47.904;8.110;2024-03-07T00:32:43;4.63;;;3.50;;
21771;SDS011;11047;47.904;8.110;2024-03-07T00:35:10;4.28;;;3.47;;
21771;SDS011;11047;47.904;8.110;2024-03-07T00:37:37;4.35;;;3.33;;
21771;SDS011;11047;47.904;8.110;2024-03-07T00:40:04;4.30;;;3.50;;
21771;SDS011;11047;47.904;8.110;2024-03-07T00:42:33;4.45;;;3.38;;
21771;SDS011;11047;47.904;8.110;2024-03-07T00:45:00;4.20;;;3.33;;
21771;SDS011;11047;47.904;8.110;2024-03-07T00:47:28;4.05;;;3.28;;
21771;SDS011;11047;47.904;8.110;2024-03-07T00:49:57;3.47;;;3.10;;
21771;SDS011;11047;47.904;8.110;2024-03-07T00:52:24;4.47;;;3.50;;
21771;SDS011;11047;47.904;8.110;2024-03-07T00:54:51;4.53;;;3.45;;
21771;SDS011;11047;47.904;8.110;2024-03-07T00:57:18;4.68;;;3.67;;
21771;SDS011;11047;47.904;8.110;2024-03-07T00:59:46;3.78;;;3.28;;
21771;SDS011;11047;47.904;8.110;2024-03-07T01:02:14;4.78;;;3.75;;
21771;SDS011;11047;47.904;8.110;2024-03-07T01:04:42;4.38;;;3.58;;
21771;SDS011;11047;47.904;8.110;2024-03-07T01:07:09;5.00;;;3.90;;
21771;SDS011;11047;47.904;8.110;2024-03-07T01:09:36;5.15;;;3.58;;
21771;SDS011;11047;47.904;8.110;2024-03-07T01:12:03;4.50;;;3.60;;
21771;SDS011;11047;47.904;8.110;2024-03-07T01:14:30;4.38;;;3.47;;
21771;SDS011;11047;47.904;8.110;2024-03-07T01:16:59;4.72;;;3.40;;
21771;SDS011;11047;47.904;8.110;2024-03-07T01:19:26;4.18;;;3.50;;
21771;SDS011;11047;47.904;8.110;2024-03-07T01:21:53;4.47;;;3.53;;
21771;SDS011;11047;47.904;8.110;2024-03-07T01:24:20;4.25;;;3.42;;
21771;SDS011;11047;47.904;8.110;2024-03-07T01:26:47;5.10;;;3.72;;
21771;SDS011;11047;47.904;8.110;2024-03-07T01:29:14;4.75;;;3.40;;
21771;SDS011;11047;47.904;8.110;2024-03-07T01:31:41;5.00;;;4.07;;
21771;SDS011;11047;47.904;8.110;2024-03-07T01:34:09;4.15;;;3.22;;
21771;SDS011;11047;47.904;8.110;2024-03-07T01:36:36;5.35;;;3.90;;
21771;SDS011;11047;47.904;8.110;2024-03-07T01:39:03;6.22;;;4.15;;
21771;SDS011;11047;47.904;8.110;2024-03-07T01:41:30;5.25;;;3.70;;
21771;SDS011;11047;47.904;8.110;2024-03-07T01:43:59;5.10;;;4.15;;
21771;SDS011;11047;47.904;8.110;2024-03-07T01:46:26;5.18;;;3.63;;
21771;SDS011;11047;47.904;8.110;2024-03-07T01:48:54;5.43;;;3.95;;
21771;SDS011;11047;47.904;8.110;2024-03-07T01:51:23;5.22;;;3.92;;
21771;SDS011;11047;47.904;8.110;2024-03-07T01:53:50;4.55;;;3.72;;
21771;SDS011;11047;47.904;8.110;2024-03-07T01:56:18;6.28;;;4.15;;
21771;SDS011;11047;47.904;8.110;2024-03-07T01:58:46;7.90;;;4.22;;
21771;SDS011;11047;47.904;8.110;2024-03-07T02:01:14;6.90;;;4.70;;
21771;SDS011;11047;47.904;8.110;2024-03-07T02:03:41;5.97;;;4.45;;
21771;SDS011;11047;47.904;8.110;2024-03-07T02:06:08;5.93;;;4.18;;
21771;SDS011;11047;47.904;8.110;2024-03-07T02:08:36;8.00;;;4.30;;
21771;SDS011;11047;47.904;8.110;2024-03-07T02:11:04;7.45;;;4.45;;
21771;SDS011;11047;47.904;8.110;2024-03-07T02:13:31;6.68;;;4.50;;
21771;SDS011;11047;47.904;8.110;2024-03-07T02:15:58;8.50;;;5.20;;
21771;SDS011;11047;47.904;8.110;2024-03-07T02:18:25;8.35;;;5.68;;
21771;SDS011;11047;47.904;8.110;2024-03-07T02:20:54;10.70;;;6.13;;
21771;SDS011;11047;47.904;8.110;2024-03-07T02:23:21;9.88;;;6.30;;
21771;SDS011;11047;47.904;8.110;2024-03-07T02:25:48;7.55;;;5.63;;
21771;SDS011;11047;47.904;8.110;2024-03-07T02:28:15;9.75;;;6.60;;
21771;SDS011;11047;47.904;8.110;2024-03-07T02:30:42;8.95;;;6.10;;
21771;SDS011;11047;47.904;8.110;2024-03-07T02:33:10;10.98;;;6.20;;
21771;SDS011;11047;47.904;8.110;2024-03-07T02:35:37;14.10;;;8.75;;
21771;SDS011;11047;47.904;8.110;2024-03-07T02:38:06;11.40;;;6.95;;
21771;SDS011;11047;47.904;8.110;2024-03-07T02:40:33;7.78;;;5.65;;
21771;SDS011;11047;47.904;8.110;2024-03-07T02:43:00;12.13;;;6.78;;
21771;SDS011;11047;47.904;8.110;2024-03-07T02:45:29;12.23;;;7.78;;
21771;SDS011;11047;47.904;8.110;2024-03-07T02:47:56;14.40;;;8.77;;
21771;SDS011;11047;47.904;8.110;2024-03-07T02:50:23;13.45;;;7.60;;
21771;SDS011;11047;47.904;8.110;2024-03-07T02:52:50;12.40;;;7.63;;
21771;SDS011;11047;47.904;8.110;2024-03-07T02:55:19;12.32;;;8.07;;
21771;SDS011;11047;47.904;8.110;2024-03-07T02:57:46;12.93;;;7.97;;
21771;SDS011;11047;47.904;8.110;2024-03-07T03:00:13;18.80;;;10.35;;
21771;SDS011;11047;47.904;8.110;2024-03-07T03:02:45;16.67;;;9.18;;
21771;SDS011;11047;47.904;8.110;2024-03-07T03:05:13;16.27;;;8.40;;
21771;SDS011;11047;47.904;8.110;2024-03-07T03:07:40;16.25;;;9.80;;
21771;SDS011;11047;47.904;8.110;2024-03-07T03:10:09;15.27;;;9.38;;
21771;SDS011;11047;47.904;8.110;2024-03-07T03:12:41;15.52;;;8.73;;
21771;SDS011;11047;47.904;8.110;2024-03-07T03:15:08;15.77;;;9.18;;
21771;SDS011;11047;47.904;8.110;2024-03-07T03:17:36;14.30;;;9.30;;
21771;SDS011;11047;47.904;8.110;2024-03-07T03:20:04;17.02;;;8.88;;
21771;SDS011;11047;47.904;8.110;2024-03-07T03:22:40;16.05;;;9.45;;
21771;SDS011;11047;47.904;8.110;2024-03-07T03:25:09;14.15;;;8.25;;
21771;SDS011;11047;47.904;8.110;2024-03-07T03:27:36;18.27;;;10.93;;
21771;SDS011;11047;47.904;8.110;2024-03-07T03:30:06;19.10;;;10.60;;
21771;SDS011;11047;47.904;8.110;2024-03-07T03:32:38;19.92;;;11.55;;
21771;SDS011;11047;47.904;8.110;2024-03-07T03:35:06;20.67;;;11.35;;
21771;SDS011;11047;47.904;8.110;2024-03-07T03:37:38;28.45;;;15.30;;
21771;SDS011;11047;47.904;8.110;2024-03-07T03:40:06;30.98;;;17.33;;
21771;SDS011;11047;47.904;8.110;2024-03-07T03:42:34;27.60;;;14.95;;
21771;SDS011;11047;47.904;8.110;2024-03-07T03:45:02;26.98;;;17.08;;
21771;SDS011;11047;47.904;8.110;2024-03-07T03:47:32;32.22;;;16.55;;
21771;SDS011;11047;47.904;8.110;2024-03-07T03:50:01;26.45;;;15.48;;
21771;SDS011;11047;47.904;8.110;2024-03-07T03:52:29;25.95;;;15.02;;
21771;SDS011;11047;47.904;8.110;2024-03-07T03:54:56;24.88;;;15.18;;
21771;SDS011;11047;47.904;8.110;2024-03-07T03:57:23;27.83;;;16.20;;
21771;SDS011;11047;47.904;8.110;2024-03-07T03:59:50;30.10;;;16.05;;
21771;SDS011;11047;47.904;8.110;2024-03-07T04:02:17;28.65;;;17.38;;
21771;SDS011;11047;47.904;8.110;2024-03-07T04:04:46;27.83;;;16.88;;
21771;SDS011;11047;47.904;8.110;2024-03-07T04:07:13;27.90;;;16.50;;
21771;SDS011;11047;47.904;8.110;2024-03-07T04:09:41;34.58;;;19.48;;
21771;SDS011;11047;47.904;8.110;2024-03-07T04:12:09;28.23;;;15.95;;
21771;SDS011;11047;47.904;8.110;2024-03-07T04:14:36;25.08;;;15.43;;
21771;SDS011;11047;47.904;8.110;2024-03-07T04:17:03;32.67;;;17.95;;
21771;SDS011;11047;47.904;8.110;2024-03-07T04:19:32;25.38;;;15.90;;
21771;SDS011;11047;47.904;8.110;2024-03-07T04:22:01;25.58;;;16.27;;
21771;SDS011;11047;47.904;8.110;2024-03-07T04:24:29;29.83;;;16.38;;
21771;SDS011;11047;47.904;8.110;2024-03-07T04:26:58;30.35;;;16.85;;
21771;SDS011;11047;47.904;8.110;2024-03-07T04:29:25;28.60;;;16.92;;
21771;SDS011;11047;47.904;8.110;2024-03-07T04:31:52;25.55;;;16.00;;
21771;SDS011;11047;47.904;8.110;2024-03-07T04:34:19;28.10;;;17.25;;
21771;SDS011;11047;47.904;8.110;2024-03-07T04:36:46;30.30;;;17.88;;
21771;SDS011;11047;47.904;8.110;2024-03-07T04:39:14;24.50;;;15.70;;
21771;SDS011;11047;47.904;8.110;2024-03-07T04:41:50;26.63;;;15.75;;
21771;SDS011;11047;47.904;8.110;2024-03-07T04:44:18;27.20;;;15.90;;
21771;SDS011;11047;47.904;8.110;2024-03-07T04:46:47;27.73;;;17.30;;
21771;SDS011;11047;47.904;8.110;2024-03-07T04:49:14;31.88;;;17.00;;
21771;SDS011;11047;47.904;8.110;2024-03-07T04:51:41;29.42;;;16.95;;
21771;SDS011;11047;47.904;8.110;2024-03-07T04:54:08;30.67;;;18.50;;
21771;SDS011;11047;47.904;8.110;2024-03-07T04:56:37;29.35;;;17.42;;
21771;SDS011;11047;47.904;8.110;2024-03-07T04:59:04;29.80;;;17.35;;
21771;SDS011;11047;47.904;8.110;2024-03-07T05:01:31;27.67;;;16.95;;
21771;SDS011;11047;47.904;8.110;2024-03-07T05:03:58;31.52;;;17.25;;
21771;SDS011;11047;47.904;8.110;2024-03-07T05:06:25;26.10;;;15.90;;
21771;SDS011;11047;47.904;8.110;2024-03-07T05:08:54;29.08;;;16.75;;
21771;SDS011;11047;47.904;8.110;2024-03-07T05:11:21;30.20;;;18.38;;
21771;SDS011;11047;47.904;8.110;2024-03-07T05:13:49;31.00;;;18.77;;
21771;SDS011;11047;47.904;8.110;2024-03-07T05:16:17;31.00;;;17.27;;
21771;SDS011;11047;47.904;8.110;2024-03-07T05:18:44;30.27;;;17.10;;
21771;SDS011;11047;47.904;8.110;2024-03-07T05:21:12;33.88;;;17.92;;
21771;SDS011;11047;47.904;8.110;2024-03-07T05:24:03;33.40;;;19.65;;
21771;SDS011;11047;47.904;8.110;2024-03-07T05:26:30;32.97;;;18.10;;
21771;SDS011;11047;47.904;8.110;2024-03-07T05:29:02;31.60;;;17.73;;
21771;SDS011;11047;47.904;8.110;2024-03-07T05:31:32;32.60;;;18.17;;
21771;SDS011;11047;47.904;8.110;2024-03-07T05:34:00;33.80;;;18.38;;
21771;SDS011;11047;47.904;8.110;2024-03-07T05:36:30;30.95;;;17.58;;
21771;SDS011;11047;47.904;8.110;2024-03-07T05:38:57;35.58;;;19.27;;
21771;SDS011;11047;47.904;8.110;2024-03-07T05:41:24;32.90;;;18.85;;
21771;SDS011;11047;47.904;8.110;2024-03-07T05:43:53;28.48;;;17.05;;
21771;SDS011;11047;47.904;8.110;2024-03-07T05:46:21;30.85;;;16.98;;
21771;SDS011;11047;47.904;8.110;2024-03-07T05:48:49;30.35;;;17.48;;
21771;SDS011;11047;47.904;8.110;2024-03-07T05:51:17;32.85;;;18.77;;
21771;SDS011;11047;47.904;8.110;2024-03-07T05:53:44;32.05;;;18.33;;
21771;SDS011;11047;47.904;8.110;2024-03-07T05:56:11;30.25;;;17.80;;
21771;SDS011;11047;47.904;8.110;2024-03-07T05:58:39;28.75;;;16.70;;
21771;SDS011;11047;47.904;8.110;2024-03-07T06:01:06;32.25;;;18.02;;
21771;SDS011;11047;47.904;8.110;2024-03-07T06:03:36;28.33;;;16.80;;
21771;SDS011;11047;47.904;8.110;2024-03-07T06:06:03;37.10;;;19.00;;
21771;SDS011;11047;47.904;8.110;2024-03-07T06:08:31;29.85;;;17.00;;
21771;SDS011;11047;47.904;8.110;2024-03-07T06:10:58;31.88;;;17.67;;
21771;SDS011;11047;47.904;8.110;2024-03-07T06:13:25;33.65;;;18.35;;
21771;SDS011;11047;47.904;8.110;2024-03-07T06:15:52;25.13;;;15.73;;
21771;SDS011;11047;47.904;8.110;2024-03-07T06:18:19;31.77;;;18.02;;
21771;SDS011;11047;47.904;8.110;2024-03-07T06:20:47;33.40;;;17.55;;
21771;SDS011;11047;47.904;8.110;2024-03-07T06:23:14;29.98;;;17.90;;
21771;SDS011;11047;47.904;8.110;2024-03-07T06:25:42;30.85;;;16.95;;
21771;SDS011;11047;47.904;8.110;2024-03-07T06:28:15;33.40;;;18.95;;
21771;SDS011;11047;47.904;8.110;2024-03-07T06:30:44;29.80;;;16.85;;
21771;SDS011;11047;47.904;8.110;2024-03-07T06:33:12;32.90;;;18.17;;
21771;SDS011;11047;47.904;8.110;2024-03-07T06:35:39;32.20;;;19.48;;
21771;SDS011;11047;47.904;8.110;2024-03-07T06:38:08;32.85;;;19.20;;
21771;SDS011;11047;47.904;8.110;2024-03-07T06:40:36;30.83;;;18.75;;
21771;SDS011;11047;47.904;8.110;2024-03-07T06:43:03;32.90;;;18.33;;
21771;SDS011;11047;47.904;8.110;2024-03-07T06:45:31;29.95;;;17.60;;
21771;SDS011;11047;47.904;8.110;2024-03-07T06:47:59;32.58;;;17.02;;
21771;SDS011;11047;47.904;8.110;2024-03-07T06:50:26;32.55;;;17.98;;
21771;SDS011;11047;47.904;8.110;2024-03-07T06:52:54;36.97;;;19.02;;
21771;SDS011;11047;47.904;8.110;2024-03-07T06:55:22;29.95;;;17.55;;
21771;SDS011;11047;47.904;8.110;2024-03-07T06:57:49;35.65;;;18.85;;
21771;SDS011;11047;47.904;8.110;2024-03-07T07:00:16;32.15;;;17.85;;
21771;SDS011;11047;47.904;8.110;2024-03-07T07:02:45;33.00;;;17.83;;
21771;SDS011;11047;47.904;8.110;2024-03-07T07:05:12;31.30;;;18.77;;
21771;SDS011;11047;47.904;8.110;2024-03-07T07:07:40;35.00;;;18.58;;
21771;SDS011;11047;47.904;8.110;2024-03-07T07:10:08;30.35;;;18.02;;
21771;SDS011;11047;47.904;8.110;2024-03-07T07:12:42;29.67;;;17.92;;
21771;SDS011;11047;47.904;8.110;2024-03-07T07:15:10;33.00;;;18.10;;
21771;SDS011;11047;47.904;8.110;2024-03-07T07:17:38;31.83;;;17.48;;
21771;SDS011;11047;47.904;8.110;2024-03-07T07:20:05;29.00;;;17.98;;
21771;SDS011;11047;47.904;8.110;2024-03-07T07:22:35;31.08;;;17.27;;
21771;SDS011;11047;47.904;8.110;2024-03-07T07:25:03;30.27;;;18.38;;
21771;SDS011;11047;47.904;8.110;2024-03-07T07:27:38;31.27;;;17.23;;
21771;SDS011;11047;47.904;8.110;2024-03-07T07:30:09;28.02;;;16.75;;
21771;SDS011;11047;47.904;8.110;2024-03-07T07:32:36;30.52;;;17.42;;
21771;SDS011;11047;47.904;8.110;2024-03-07T07:35:03;30.92;;;17.67;;
21771;SDS011;11047;47.904;8.110;2024-03-07T07:37:34;31.30;;;17.88;;
21771;SDS011;11047;47.904;8.110;2024-03-07T07:40:02;28.85;;;17.08;;
21771;SDS011;11047;47.904;8.110;2024-03-07T07:42:33;29.85;;;18.02;;
21771;SDS011;11047;47.904;8.110;2024-03-07T07:45:00;29.92;;;16.92;;
21771;SDS011;11047;47.904;8.110;2024-03-07T07:47:28;29.67;;;17.25;;
21771;SDS011;11047;47.904;8.110;2024-03-07T07:49:55;29.80;;;17.50;;
21771;SDS011;11047;47.904;8.110;2024-03-07T07:52:22;29.30;;;16.60;;
21771;SDS011;11047;47.904;8.110;2024-03-07T07:54:49;26.80;;;15.95;;
21771;SDS011;11047;47.904;8.110;2024-03-07T07:57:16;26.30;;;17.58;;
21771;SDS011;11047;47.904;8.110;2024-03-07T07:59:43;26.98;;;16.50;;
21771;SDS011;11047;47.904;8.110;2024-03-07T08:02:10;26.50;;;16.25;;
21771;SDS011;11047;47.904;8.110;2024-03-07T08:04:39;28.83;;;17.50;;
21771;SDS011;11047;47.904;8.110;2024-03-07T08:07:05;27.25;;;16.80;;
21771;SDS011;11047;47.904;8.110;2024-03-07T08:09:33;24.63;;;16.05;;
21771;SDS011;11047;47.904;8.110;2024-03-07T08:11:59;24.88;;;16.73;;
21771;SDS011;11047;47.904;8.110;2024-03-07T08:14:27;25.10;;;15.75;;
21771;SDS011;11047;47.904;8.110;2024-03-07T08:16:54;26.95;;;16.48;;
21771;SDS011;11047;47.904;8.110;2024-03-07T08:19:21;26.27;;;14.45;;
21771;SDS011;11047;47.904;8.110;2024-03-07T08:21:51;27.25;;;15.27;;
21771;SDS011;11047;47.904;8.110;2024-03-07T08:24:18;23.55;;;15.00;;
21771;SDS011;11047;47.904;8.110;2024-03-07T08:26:45;24.05;;;16.25;;
21771;SDS011;11047;47.904;8.110;2024-03-07T08:29:13;26.02;;;15.30;;
21771;SDS011;11047;47.904;8.110;2024-03-07T08:31:41;24.40;;;15.35;;
21771;SDS011;11047;47.904;8.110;2024-03-07T08:34:09;22.45;;;14.82;;
21771;SDS011;11047;47.904;8.110;2024-03-07T08:36:36;25.80;;;15.90;;
21771;SDS011;11047;47.904;8.110;2024-03-07T08:39:06;24.67;;;15.70;;
21771;SDS011;11047;47.904;8.110;2024-03-07T08:41:36;24.40;;;16.05;;
21771;SDS011;11047;47.904;8.110;2024-03-07T08:44:07;25.67;;;16.13;;
21771;SDS011;11047;47.904;8.110;2024-03-07T08:46:34;24.98;;;15.43;;
21771;SDS011;11047;47.904;8.110;2024-03-07T08:49:02;24.63;;;15.55;;
21771;SDS011;11047;47.904;8.110;2024-03-07T08:51:30;25.55;;;17.10;;
21771;SDS011;11047;47.904;8.110;2024-03-07T08:53:57;25.73;;;17.00;;
21771;SDS011;11047;47.904;8.110;2024-03-07T08:56:25;25.58;;;15.90;;
21771;SDS011;11047;47.904;8.110;2024-03-07T08:58:52;25.08;;;16.08;;
21771;SDS011;11047;47.904;8.110;2024-03-07T09:01:19;27.20;;;16.58;;
21771;SDS011;11047;47.904;8.110;2024-03-07T09:03:46;24.98;;;16.05;;
21771;SDS011;11047;47.904;8.110;2024-03-07T09:06:13;28.90;;;17.20;;
21771;SDS011;11047;47.904;8.110;2024-03-07T09:08:41;27.27;;;17.20;;
21771;SDS011;11047;47.904;8.110;2024-03-07T09:11:08;30.48;;;18.40;;
21771;SDS011;11047;47.904;8.110;2024-03-07T09:13:37;31.27;;;18.30;;
21771;SDS011;11047;47.904;8.110;2024-03-07T09:16:05;27.48;;;17.60;;
21771;SDS011;11047;47.904;8.110;2024-03-07T09:18:32;24.85;;;15.43;;
21771;SDS011;11047;47.904;8.110;2024-03-07T09:20:59;25.98;;;16.30;;
21771;SDS011;11047;47.904;8.110;2024-03-07T09:23:26;26.83;;;17.15;;
21771;SDS011;11047;47.904;8.110;2024-03-07T09:25:54;28.73;;;17.48;;
21771;SDS011;11047;47.904;8.110;2024-03-07T09:28:21;28.50;;;18.05;;
21771;SDS011;11047;47.904;8.110;2024-03-07T09:30:49;29.52;;;17.80;;
21771;SDS011;11047;47.904;8.110;2024-03-07T09:33:16;25.73;;;17.15;;
21771;SDS011;11047;47.904;8.110;2024-03-07T09:35:44;27.38;;;16.13;;
21771;SDS011;11047;47.904;8.110;2024-03-07T09:38:11;30.42;;;18.38;;
21771;SDS011;11047;47.904;8.110;2024-03-07T09:40:38;31.15;;;18.58;;
21771;SDS011;11047;47.904;8.110;2024-03-07T09:43:06;26.65;;;16.23;;
21771;SDS011;11047;47.904;8.110;2024-03-07T09:45:36;27.45;;;16.73;;
21771;SDS011;11047;47.904;8.110;2024-03-07T09:48:06;33.03;;;17.20;;
21771;SDS011;11047;47.904;8.110;2024-03-07T09:50:35;26.30;;;17.38;;
21771;SDS011;11047;47.904;8.110;2024-03-07T09:53:03;25.52;;;16.80;;
21771;SDS011;11047;47.904;8.110;2024-03-07T09:55:30;27.73;;;16.70;;
21771;SDS011;11047;47.904;8.110;2024-03-07T09:57:58;27.17;;;16.88;;
21771;SDS011;11047;47.904;8.110;2024-03-07T10:00:26;30.10;;;17.23;;
21771;SDS011;11047;47.904;8.110;2024-03-07T10:02:56;26.20;;;16.70;;
21771;SDS011;11047;47.904;8.110;2024-03-07T10:05:26;25.60;;;16.15;;
21771;SDS011;11047;47.904;8.110;2024-03-07T10:07:54;29.08;;;17.25;;
21771;SDS011;11047;47.904;8.110;2024-03-07T10:10:21;27.15;;;16.77;;
21771;SDS011;11047;47.904;8.110;2024-03-07T10:12:49;27.10;;;17.20;;
21771;SDS011;11047;47.904;8.110;2024-03-07T10:15:17;24.13;;;16.13;;
21771;SDS011;11047;47.904;8.110;2024-03-07T10:17:44;25.77;;;16.15;;
21771;SDS011;11047;47.904;8.110;2024-03-07T10:20:12;26.23;;;16.73;;
21771;SDS011;11047;47.904;8.110;2024-03-07T10:22:41;30.20;;;17.90;;
21771;SDS011;11047;47.904;8.110;2024-03-07T10:25:08;29.23;;;17.52;;
21771;SDS011;11047;47.904;8.110;2024-03-07T10:27:38;27.63;;;18.58;;
21771;SDS011;11047;47.904;8.110;2024-03-07T10:30:07;28.58;;;17.38;;
21771;SDS011;11047;47.904;8.110;2024-03-07T10:32:34;26.75;;;17.35;;
21771;SDS011;11047;47.904;8.110;2024-03-07T10:35:02;33.80;;;17.25;;
21771;SDS011;11047;47.904;8.110;2024-03-07T10:37:33;27.35;;;16.70;;
21771;SDS011;11047;47.904;8.110;2024-03-07T10:40:02;25.13;;;16.60;;
21771;SDS011;11047;47.904;8.110;2024-03-07T10:42:40;23.90;;;15.57;;
21771;SDS011;11047;47.904;8.110;2024-03-07T10:45:16;25.20;;;15.27;;
21771;SDS011;11047;47.904;8.110;2024-03-07T10:47:47;26.25;;;15.85;;
21771;SDS011;11047;47.904;8.110;2024-03-07T10:50:19;21.67;;;15.70;;
21771;SDS011;11047;47.904;8.110;2024-03-07T10:52:58;26.30;;;16.42;;
21771;SDS011;11047;47.904;8.110;2024-03-07T10:55:33;26.25;;;17.02;;
21771;SDS011;11047;47.904;8.110;2024-03-07T10:58:05;25.45;;;15.57;;
21771;SDS011;11047;47.904;8.110;2024-03-07T11:00:38;20.92;;;14.52;;
21771;SDS011;11047;47.904;8.110;2024-03-07T11:03:10;23.50;;;14.70;;
21771;SDS011;11047;47.904;8.110;2024-03-07T11:05:39;22.95;;;15.18;;
21771;SDS011;11047;47.904;8.110;2024-03-07T11:08:08;23.45;;;13.77;;
21771;SDS011;11047;47.904;8.110;2024-03-07T11:10:39;20.65;;;13.85;;
21771;SDS011;11047;47.904;8.110;2024-03-07T11:13:06;22.67;;;14.32;;
21771;SDS011;11047;47.904;8.110;2024-03-07T11:15:35;21.10;;;13.68;;
21771;SDS011;11047;47.904;8.110;2024-03-07T11:18:04;28.20;;;14.57;;
21771;SDS011;11047;47.904;8.110;2024-03-07T11:20:36;24.77;;;14.18;;
21771;SDS011;11047;47.904;8.110;2024-03-07T11:25:57;25.65;;;14.23;;
21771;SDS011;11047;47.904;8.110;2024-03-07T11:28:33;21.40;;;14.02;;
21771;SDS011;11047;47.904;8.110;2024-03-07T11:31:15;21.58;;;13.55;;
21771;SDS011;11047;47.904;8.110;2024-03-07T11:36:44;20.13;;;13.18;;
21771;SDS011;11047;47.904;8.110;2024-03-07T11:42:07;19.92;;;13.23;;
21771;SDS011;11047;47.904;8.110;2024-03-07T11:44:34;19.85;;;13.90;;
21771;SDS011;11047;47.904;8.110;2024-03-07T11:47:05;20.63;;;13.07;;
21771;SDS011;11047;47.904;8.110;2024-03-07T11:49:34;21.27;;;13.35;;
21771;SDS011;11047;47.904;8.110;2024-03-07T11:52:02;23.60;;;14.35;;
21771;SDS011;11047;47.904;8.110;2024-03-07T11:54:29;18.30;;;13.02;;
21771;SDS011;11047;47.904;8.110;2024-03-07T11:56:57;23.45;;;12.68;;
21771;SDS011;11047;47.904;8.110;2024-03-07T11:59:26;20.23;;;13.27;;
21771;SDS011;11047;47.904;8.110;2024-03-07T12:02:02;23.67;;;14.40;;
21771;SDS011;11047;47.904;8.110;2024-03-07T12:04:31;17.33;;;12.05;;
21771;SDS011;11047;47.904;8.110;2024-03-07T12:07:00;21.75;;;13.18;;
21771;SDS011;11047;47.904;8.110;2024-03-07T12:09:26;22.15;;;13.57;;
21771;SDS011;11047;47.904;8.110;2024-03-07T12:11:53;21.33;;;13.90;;
21771;SDS011;11047;47.904;8.110;2024-03-07T12:14:20;22.17;;;13.88;;
21771;SDS011;11047;47.904;8.110;2024-03-07T12:16:49;19.58;;;13.15;;
21771;SDS011;11047;47.904;8.110;2024-03-07T12:19:17;20.10;;;12.50;;
21771;SDS011;11047;47.904;8.110;2024-03-07T12:21:46;21.77;;;13.50;;
21771;SDS011;11047;47.904;8.110;2024-03-07T12:24:14;20.42;;;13.55;;
21771;SDS011;11047;47.904;8.110;2024-03-07T12:26:41;21.92;;;13.68;;
21771;SDS011;11047;47.904;8.110;2024-03-07T12:29:08;22.02;;;13.65;;
21771;SDS011;11047;47.904;8.110;2024-03-07T12:31:37;20.90;;;13.85;;
21771;SDS011;11047;47.904;8.110;2024-03-07T12:34:06;21.25;;;14.00;;
21771;SDS011;11047;47.904;8.110;2024-03-07T12:36:34;22.27;;;13.77;;
21771;SDS011;11047;47.904;8.110;2024-03-07T12:39:10;20.17;;;13.63;;
21771;SDS011;11047;47.904;8.110;2024-03-07T12:41:51;22.02;;;14.27;;
21771;SDS011;11047;47.904;8.110;2024-03-07T12:44:19;20.05;;;13.48;;
21771;SDS011;11047;47.904;8.110;2024-03-07T12:46:46;21.40;;;14.23;;
21771;SDS011;11047;47.904;8.110;2024-03-07T12:49:15;23.00;;;13.80;;
21771;SDS011;11047;47.904;8.110;2024-03-07T12:51:42;21.95;;;13.85;;
21771;SDS011;11047;47.904;8.110;2024-03-07T12:54:09;22.75;;;14.23;;
21771;SDS011;11047;47.904;8.110;2024-03-07T12:56:36;21.40;;;14.48;;
21771;SDS011;11047;47.904;8.110;2024-03-07T12:59:04;20.55;;;12.82;;
21771;SDS011;11047;47.904;8.110;2024-03-07T13:01:34;18.90;;;12.15;;
21771;SDS011;11047;47.904;8.110;2024-03-07T13:04:03;19.77;;;12.93;;
21771;SDS011;11047;47.904;8.110;2024-03-07T13:06:34;23.80;;;13.75;;
21771;SDS011;11047;47.904;8.110;2024-03-07T13:09:01;21.40;;;13.60;;
21771;SDS011;11047;47.904;8.110;2024-03-07T13:11:28;21.63;;;13.95;;
21771;SDS011;11047;47.904;8.110;2024-03-07T13:13:57;20.30;;;13.35;;
21771;SDS011;11047;47.904;8.110;2024-03-07T13:16:24;26.15;;;14.55;;
21771;SDS011;11047;47.904;8.110;2024-03-07T13:18:52;20.75;;;13.43;;
21771;SDS011;11047;47.904;8.110;2024-03-07T13:21:20;22.58;;;14.52;;
21771;SDS011;11047;47.904;8.110;2024-03-07T13:23:49;20.95;;;13.80;;
21771;SDS011;11047;47.904;8.110;2024-03-07T13:26:17;21.92;;;13.77;;
21771;SDS011;11047;47.904;8.110;2024-03-07T13:28:49;24.90;;;14.68;;
21771;SDS011;11047;47.904;8.110;2024-03-07T13:31:17;20.02;;;13.48;;
21771;SDS011;11047;47.904;8.110;2024-03-07T13:33:44;23.85;;;13.30;;
21771;SDS011;11047;47.904;8.110;2024-03-07T13:36:16;19.60;;;12.90;;
21771;SDS011;11047;47.904;8.110;2024-03-07T13:38:49;22.50;;;13.82;;
21771;SDS011;11047;47.904;8.110;2024-03-07T13:41:17;19.85;;;13.20;;
21771;SDS011;11047;47.904;8.110;2024-03-07T13:43:44;21.20;;;13.68;;
21771;SDS011;11047;47.904;8.110;2024-03-07T13:46:11;19.85;;;12.57;;
21771;SDS011;11047;47.904;8.110;2024-03-07T13:48:38;20.40;;;12.85;;
21771;SDS011;11047;47.904;8.110;2024-03-07T13:51:07;24.83;;;14.63;;
21771;SDS011;11047;47.904;8.110;2024-03-07T13:53:50;22.98;;;14.85;;
21771;SDS011;11047;47.904;8.110;2024-03-07T13:56:40;25.02;;;15.40;;
21771;SDS011;11047;47.904;8.110;2024-03-07T13:59:17;20.23;;;13.57;;
21771;SDS011;11047;47.904;8.110;2024-03-07T14:02:14;23.63;;;13.63;;
21771;SDS011;11047;47.904;8.110;2024-03-07T14:05:24;22.45;;;13.68;;
21771;SDS011;11047;47.904;8.110;2024-03-07T14:08:20;20.38;;;12.73;;
21771;SDS011;11047;47.904;8.110;2024-03-07T14:11:18;22.02;;;13.05;;
21771;SDS011;11047;47.904;8.110;2024-03-07T14:14:12;21.20;;;12.95;;
21771;SDS011;11047;47.904;8.110;2024-03-07T14:25:49;23.13;;;13.20;;
21771;SDS011;11047;47.904;8.110;2024-03-07T14:28:39;20.27;;;12.27;;
21771;SDS011;11047;47.904;8.110;2024-03-07T14:31:15;20.08;;;13.80;;
21771;SDS011;11047;47.904;8.110;2024-03-07T14:33:48;21.50;;;13.32;;
21771;SDS011;11047;47.904;8.110;2024-03-07T14:36:32;20.50;;;12.25;;
21771;SDS011;11047;47.904;8.110;2024-03-07T14:39:03;20.20;;;12.45;;
21771;SDS011;11047;47.904;8.110;2024-03-07T14:41:41;21.20;;;13.40;;
21771;SDS011;11047;47.904;8.110;2024-03-07T14:44:13;22.05;;;12.75;;
21771;SDS011;11047;47.904;8.110;2024-03-07T14:46:40;23.23;;;12.63;;
21771;SDS011;11047;47.904;8.110;2024-03-07T14:49:08;19.35;;;11.85;;
21771;SDS011;11047;47.904;8.110;2024-03-07T14:51:38;22.27;;;12.77;;
21771;SDS011;11047;47.904;8.110;2024-03-07T14:54:05;20.00;;;12.38;;